sensor_id;sensor_type;location;lat;lon;timestamp;P1;durP1;ratioP1;P2;durP2;ratioP2
12840;SDS011;6487;48.626;12.486;2022-10-17T00:01:09;6.13;;;4.00;;
12840;SDS011;6487;48.626;12.486;2022-10-17T00:03:39;4.07;;;3.67;;
12840;SDS011;6487;48.626;12.486;2022-10-17T00:06:09;7.30;;;4.30;;
12840;SDS011;6487;48.626;12.486;2022-10-17T00:08:41;4.37;;;3.70;;
12840;SDS011;6487;48.626;12.486;2022-10-17T00:11:12;4.07;;;3.40;;
12840;SDS011;6487;48.626;12.486;2022-10-17T00:13:43;9.73;;;4.23;;
12840;SDS011;6487;48.626;12.486;2022-10-17T00:16:13;8.77;;;4.10;;
12840;SDS011;6487;48.626;12.486;2022-10-17T00:18:43;11.10;;;4.30;;
12840;SDS011;6487;48.626;12.486;2022-10-17T00:21:14;5.77;;;3.80;;
12840;SDS011;6487;48.626;12.486;2022-10-17T00:23:45;4.00;;;3.50;;
12840;SDS011;6487;48.626;12.486;2022-10-17T00:26:15;7.37;;;4.17;;
12840;SDS011;6487;48.626;12.486;2022-10-17T00:28:44;6.77;;;3.47;;
12840;SDS011;6487;48.626;12.486;2022-10-17T00:31:15;6.67;;;3.90;;
12840;SDS011;6487;48.626;12.486;2022-10-17T00:33:45;4.40;;;3.43;;
12840;SDS011;6487;48.626;12.486;2022-10-17T00:36:15;4.30;;;2.97;;
12840;SDS011;6487;48.626;12.486;2022-10-17T00:38:47;4.17;;;3.57;;
12840;SDS011;6487;48.626;12.486;2022-10-17T00:41:19;7.00;;;3.30;;
12840;SDS011;6487;48.626;12.486;2022-10-17T00:43:51;4.73;;;3.40;;
12840;SDS011;6487;48.626;12.486;2022-10-17T00:46:23;4.57;;;3.80;;
12840;SDS011;6487;48.626;12.486;2022-10-17T00:48:55;6.77;;;3.77;;
12840;SDS011;6487;48.626;12.486;2022-10-17T00:51:26;5.47;;;3.33;;
12840;SDS011;6487;48.626;12.486;2022-10-17T00:54:02;9.57;;;4.30;;
12840;SDS011;6487;48.626;12.486;2022-10-17T00:56:31;6.60;;;3.60;;
12840;SDS011;6487;48.626;12.486;2022-10-17T00:59:00;3.97;;;3.67;;
12840;SDS011;6487;48.626;12.486;2022-10-17T01:01:34;8.53;;;3.73;;
12840;SDS011;6487;48.626;12.486;2022-10-17T01:04:03;6.07;;;3.83;;
12840;SDS011;6487;48.626;12.486;2022-10-17T01:06:31;5.10;;;3.50;;
12840;SDS011;6487;48.626;12.486;2022-10-17T01:08:59;6.10;;;3.63;;
12840;SDS011;6487;48.626;12.486;2022-10-17T01:11:31;5.97;;;4.20;;
12840;SDS011;6487;48.626;12.486;2022-10-17T01:14:08;12.17;;;4.17;;
12840;SDS011;6487;48.626;12.486;2022-10-17T01:16:48;4.97;;;4.40;;
12840;SDS011;6487;48.626;12.486;2022-10-17T01:19:33;6.13;;;4.20;;
12840;SDS011;6487;48.626;12.486;2022-10-17T01:22:19;5.97;;;3.67;;
12840;SDS011;6487;48.626;12.486;2022-10-17T01:25:03;4.30;;;4.00;;
12840;SDS011;6487;48.626;12.486;2022-10-17T01:28:04;5.37;;;3.77;;
12840;SDS011;6487;48.626;12.486;2022-10-17T01:30:56;6.07;;;3.80;;
12840;SDS011;6487;48.626;12.486;2022-10-17T01:33:47;4.73;;;3.47;;
12840;SDS011;6487;48.626;12.486;2022-10-17T01:36:29;7.10;;;3.57;;
12840;SDS011;6487;48.626;12.486;2022-10-17T01:39:09;4.67;;;3.83;;
12840;SDS011;6487;48.626;12.486;2022-10-17T01:41:43;5.07;;;3.27;;
12840;SDS011;6487;48.626;12.486;2022-10-17T01:44:19;7.23;;;4.50;;
12840;SDS011;6487;48.626;12.486;2022-10-17T01:46:56;7.13;;;4.23;;
12840;SDS011;6487;48.626;12.486;2022-10-17T01:49:30;6.73;;;4.93;;
12840;SDS011;6487;48.626;12.486;2022-10-17T01:52:02;8.57;;;5.87;;
12840;SDS011;6487;48.626;12.486;2022-10-17T01:54:36;9.30;;;5.53;;
12840;SDS011;6487;48.626;12.486;2022-10-17T01:57:10;9.13;;;6.37;;
12840;SDS011;6487;48.626;12.486;2022-10-17T01:59:48;8.93;;;5.70;;
12840;SDS011;6487;48.626;12.486;2022-10-17T02:02:20;5.27;;;4.67;;
12840;SDS011;6487;48.626;12.486;2022-10-17T02:04:51;6.73;;;5.87;;
12840;SDS011;6487;48.626;12.486;2022-10-17T02:07:20;6.23;;;5.20;;
12840;SDS011;6487;48.626;12.486;2022-10-17T02:09:49;7.97;;;5.17;;
12840;SDS011;6487;48.626;12.486;2022-10-17T02:15:22;6.80;;;4.90;;
12840;SDS011;6487;48.626;12.486;2022-10-17T02:18:17;6.10;;;5.20;;
12840;SDS011;6487;48.626;12.486;2022-10-17T02:21:07;6.43;;;5.70;;
12840;SDS011;6487;48.626;12.486;2022-10-17T02:23:44;8.40;;;6.57;;
12840;SDS011;6487;48.626;12.486;2022-10-17T02:26:20;9.67;;;8.47;;
12840;SDS011;6487;48.626;12.486;2022-10-17T02:28:59;10.43;;;7.70;;
12840;SDS011;6487;48.626;12.486;2022-10-17T02:31:35;9.60;;;7.60;;
12840;SDS011;6487;48.626;12.486;2022-10-17T02:34:08;7.27;;;5.87;;
12840;SDS011;6487;48.626;12.486;2022-10-17T02:36:44;9.93;;;6.23;;
12840;SDS011;6487;48.626;12.486;2022-10-17T02:39:15;8.20;;;6.90;;
12840;SDS011;6487;48.626;12.486;2022-10-17T02:41:45;10.00;;;8.07;;
12840;SDS011;6487;48.626;12.486;2022-10-17T02:44:16;11.53;;;8.33;;
12840;SDS011;6487;48.626;12.486;2022-10-17T02:46:51;9.80;;;8.80;;
12840;SDS011;6487;48.626;12.486;2022-10-17T02:49:28;8.00;;;6.90;;
12840;SDS011;6487;48.626;12.486;2022-10-17T02:52:03;11.77;;;7.60;;
12840;SDS011;6487;48.626;12.486;2022-10-17T02:54:38;8.47;;;7.57;;
12840;SDS011;6487;48.626;12.486;2022-10-17T02:57:13;14.13;;;10.07;;
12840;SDS011;6487;48.626;12.486;2022-10-17T02:59:47;12.57;;;11.30;;
12840;SDS011;6487;48.626;12.486;2022-10-17T03:02:16;13.30;;;11.90;;
12840;SDS011;6487;48.626;12.486;2022-10-17T03:04:46;23.07;;;11.50;;
12840;SDS011;6487;48.626;12.486;2022-10-17T03:07:14;12.23;;;10.30;;
12840;SDS011;6487;48.626;12.486;2022-10-17T03:09:43;12.13;;;10.23;;
12840;SDS011;6487;48.626;12.486;2022-10-17T03:12:11;12.63;;;10.70;;
12840;SDS011;6487;48.626;12.486;2022-10-17T03:14:39;12.87;;;11.00;;
12840;SDS011;6487;48.626;12.486;2022-10-17T03:17:07;14.63;;;10.70;;
12840;SDS011;6487;48.626;12.486;2022-10-17T03:19:36;12.53;;;10.00;;
12840;SDS011;6487;48.626;12.486;2022-10-17T03:22:05;14.90;;;10.60;;
12840;SDS011;6487;48.626;12.486;2022-10-17T03:24:33;17.10;;;10.77;;
12840;SDS011;6487;48.626;12.486;2022-10-17T03:27:02;12.13;;;10.03;;
12840;SDS011;6487;48.626;12.486;2022-10-17T03:29:30;16.23;;;11.03;;
12840;SDS011;6487;48.626;12.486;2022-10-17T03:31:58;12.87;;;10.80;;
12840;SDS011;6487;48.626;12.486;2022-10-17T03:34:27;11.67;;;10.47;;
12840;SDS011;6487;48.626;12.486;2022-10-17T03:36:55;14.77;;;11.87;;
12840;SDS011;6487;48.626;12.486;2022-10-17T03:39:24;13.83;;;11.60;;
12840;SDS011;6487;48.626;12.486;2022-10-17T03:41:53;14.70;;;12.67;;
12840;SDS011;6487;48.626;12.486;2022-10-17T03:44:21;15.27;;;12.23;;
12840;SDS011;6487;48.626;12.486;2022-10-17T03:46:49;16.07;;;11.83;;
12840;SDS011;6487;48.626;12.486;2022-10-17T03:49:17;20.00;;;13.87;;
12840;SDS011;6487;48.626;12.486;2022-10-17T03:51:46;14.80;;;12.30;;
12840;SDS011;6487;48.626;12.486;2022-10-17T03:54:14;16.57;;;13.60;;
12840;SDS011;6487;48.626;12.486;2022-10-17T03:56:43;15.23;;;13.63;;
12840;SDS011;6487;48.626;12.486;2022-10-17T03:59:12;17.20;;;15.33;;
12840;SDS011;6487;48.626;12.486;2022-10-17T04:01:41;16.37;;;14.23;;
12840;SDS011;6487;48.626;12.486;2022-10-17T04:04:10;17.43;;;15.50;;
12840;SDS011;6487;48.626;12.486;2022-10-17T04:06:38;19.33;;;15.93;;
12840;SDS011;6487;48.626;12.486;2022-10-17T04:09:06;27.97;;;16.97;;
12840;SDS011;6487;48.626;12.486;2022-10-17T04:11:36;17.00;;;14.77;;
12840;SDS011;6487;48.626;12.486;2022-10-17T04:14:06;20.80;;;15.47;;
12840;SDS011;6487;48.626;12.486;2022-10-17T04:16:36;19.87;;;16.40;;
12840;SDS011;6487;48.626;12.486;2022-10-17T04:19:05;20.30;;;16.40;;
12840;SDS011;6487;48.626;12.486;2022-10-17T04:21:33;23.90;;;16.10;;
12840;SDS011;6487;48.626;12.486;2022-10-17T04:24:01;17.47;;;15.23;;
12840;SDS011;6487;48.626;12.486;2022-10-17T04:26:30;20.23;;;17.17;;
12840;SDS011;6487;48.626;12.486;2022-10-17T04:28:58;23.37;;;19.23;;
12840;SDS011;6487;48.626;12.486;2022-10-17T04:31:28;24.03;;;19.67;;
12840;SDS011;6487;48.626;12.486;2022-10-17T04:33:56;26.33;;;20.57;;
12840;SDS011;6487;48.626;12.486;2022-10-17T04:36:24;24.73;;;19.30;;
12840;SDS011;6487;48.626;12.486;2022-10-17T04:38:52;24.27;;;19.80;;
12840;SDS011;6487;48.626;12.486;2022-10-17T04:41:21;17.37;;;15.53;;
12840;SDS011;6487;48.626;12.486;2022-10-17T04:43:49;18.33;;;13.80;;
12840;SDS011;6487;48.626;12.486;2022-10-17T04:46:17;18.33;;;15.27;;
12840;SDS011;6487;48.626;12.486;2022-10-17T04:48:47;18.23;;;14.90;;
12840;SDS011;6487;48.626;12.486;2022-10-17T04:51:16;16.67;;;14.93;;
12840;SDS011;6487;48.626;12.486;2022-10-17T04:53:51;23.00;;;17.27;;
12840;SDS011;6487;48.626;12.486;2022-10-17T04:56:20;19.83;;;17.20;;
12840;SDS011;6487;48.626;12.486;2022-10-17T04:58:50;20.80;;;16.67;;
12840;SDS011;6487;48.626;12.486;2022-10-17T05:01:20;21.47;;;15.63;;
12840;SDS011;6487;48.626;12.486;2022-10-17T05:03:51;19.53;;;17.03;;
12840;SDS011;6487;48.626;12.486;2022-10-17T05:06:21;22.60;;;17.60;;
12840;SDS011;6487;48.626;12.486;2022-10-17T05:08:53;22.13;;;17.67;;
12840;SDS011;6487;48.626;12.486;2022-10-17T05:11:23;24.60;;;19.67;;
12840;SDS011;6487;48.626;12.486;2022-10-17T05:13:54;23.17;;;18.53;;
12840;SDS011;6487;48.626;12.486;2022-10-17T05:16:24;24.67;;;19.67;;
12840;SDS011;6487;48.626;12.486;2022-10-17T05:18:56;23.70;;;18.93;;
12840;SDS011;6487;48.626;12.486;2022-10-17T05:21:26;24.33;;;19.10;;
12840;SDS011;6487;48.626;12.486;2022-10-17T05:23:56;22.97;;;19.77;;
12840;SDS011;6487;48.626;12.486;2022-10-17T05:26:25;23.80;;;19.93;;
12840;SDS011;6487;48.626;12.486;2022-10-17T05:28:53;24.93;;;19.30;;
12840;SDS011;6487;48.626;12.486;2022-10-17T05:31:21;24.47;;;19.23;;
12840;SDS011;6487;48.626;12.486;2022-10-17T05:33:49;22.40;;;18.17;;
12840;SDS011;6487;48.626;12.486;2022-10-17T05:36:19;26.93;;;18.90;;
12840;SDS011;6487;48.626;12.486;2022-10-17T05:38:48;26.27;;;18.50;;
12840;SDS011;6487;48.626;12.486;2022-10-17T05:41:17;22.80;;;19.67;;
12840;SDS011;6487;48.626;12.486;2022-10-17T05:43:46;20.77;;;18.57;;
12840;SDS011;6487;48.626;12.486;2022-10-17T05:46:15;25.43;;;21.20;;
12840;SDS011;6487;48.626;12.486;2022-10-17T05:48:43;23.53;;;20.43;;
12840;SDS011;6487;48.626;12.486;2022-10-17T05:51:12;22.67;;;19.70;;
12840;SDS011;6487;48.626;12.486;2022-10-17T05:53:41;29.23;;;20.60;;
12840;SDS011;6487;48.626;12.486;2022-10-17T05:56:10;24.30;;;20.57;;
12840;SDS011;6487;48.626;12.486;2022-10-17T05:58:39;28.23;;;22.67;;
12840;SDS011;6487;48.626;12.486;2022-10-17T06:01:17;26.73;;;21.50;;
12840;SDS011;6487;48.626;12.486;2022-10-17T06:03:45;24.57;;;21.63;;
12840;SDS011;6487;48.626;12.486;2022-10-17T06:06:14;22.23;;;19.87;;
12840;SDS011;6487;48.626;12.486;2022-10-17T06:08:45;28.13;;;21.43;;
12840;SDS011;6487;48.626;12.486;2022-10-17T06:11:13;26.20;;;20.40;;
12840;SDS011;6487;48.626;12.486;2022-10-17T06:13:41;30.00;;;19.43;;
12840;SDS011;6487;48.626;12.486;2022-10-17T06:16:09;25.77;;;21.50;;
12840;SDS011;6487;48.626;12.486;2022-10-17T06:18:38;27.70;;;21.30;;
12840;SDS011;6487;48.626;12.486;2022-10-17T06:21:07;27.80;;;21.97;;
12840;SDS011;6487;48.626;12.486;2022-10-17T06:23:38;34.27;;;23.87;;
12840;SDS011;6487;48.626;12.486;2022-10-17T06:26:07;43.27;;;26.60;;
12840;SDS011;6487;48.626;12.486;2022-10-17T06:28:36;40.23;;;27.83;;
12840;SDS011;6487;48.626;12.486;2022-10-17T06:31:05;42.30;;;26.63;;
12840;SDS011;6487;48.626;12.486;2022-10-17T06:33:34;40.50;;;26.13;;
12840;SDS011;6487;48.626;12.486;2022-10-17T06:36:03;34.77;;;28.03;;
12840;SDS011;6487;48.626;12.486;2022-10-17T06:38:33;34.83;;;27.43;;
12840;SDS011;6487;48.626;12.486;2022-10-17T06:41:02;35.27;;;27.43;;
12840;SDS011;6487;48.626;12.486;2022-10-17T06:43:48;31.97;;;25.30;;
12840;SDS011;6487;48.626;12.486;2022-10-17T06:46:17;32.77;;;26.80;;
12840;SDS011;6487;48.626;12.486;2022-10-17T06:48:46;41.33;;;26.73;;
12840;SDS011;6487;48.626;12.486;2022-10-17T06:51:14;39.33;;;26.67;;
12840;SDS011;6487;48.626;12.486;2022-10-17T06:53:42;43.87;;;27.47;;
12840;SDS011;6487;48.626;12.486;2022-10-17T06:56:11;35.53;;;27.17;;
12840;SDS011;6487;48.626;12.486;2022-10-17T06:58:39;41.23;;;26.53;;
12840;SDS011;6487;48.626;12.486;2022-10-17T07:01:09;35.43;;;23.93;;
12840;SDS011;6487;48.626;12.486;2022-10-17T07:03:39;25.97;;;23.17;;
12840;SDS011;6487;48.626;12.486;2022-10-17T07:06:09;31.73;;;21.97;;
12840;SDS011;6487;48.626;12.486;2022-10-17T07:08:40;26.20;;;23.37;;
12840;SDS011;6487;48.626;12.486;2022-10-17T07:11:10;32.13;;;24.30;;
12840;SDS011;6487;48.626;12.486;2022-10-17T07:13:40;27.10;;;24.30;;
12840;SDS011;6487;48.626;12.486;2022-10-17T07:16:10;28.03;;;24.83;;
12840;SDS011;6487;48.626;12.486;2022-10-17T07:18:40;27.53;;;24.73;;
12840;SDS011;6487;48.626;12.486;2022-10-17T07:21:09;29.20;;;24.17;;
12840;SDS011;6487;48.626;12.486;2022-10-17T07:23:37;32.83;;;25.67;;
12840;SDS011;6487;48.626;12.486;2022-10-17T07:26:07;29.97;;;25.63;;
12840;SDS011;6487;48.626;12.486;2022-10-17T07:28:40;28.57;;;25.17;;
12840;SDS011;6487;48.626;12.486;2022-10-17T07:31:14;30.87;;;26.30;;
12840;SDS011;6487;48.626;12.486;2022-10-17T07:33:44;31.50;;;26.07;;
12840;SDS011;6487;48.626;12.486;2022-10-17T07:36:13;29.33;;;26.33;;
12840;SDS011;6487;48.626;12.486;2022-10-17T07:38:42;40.50;;;28.07;;
12840;SDS011;6487;48.626;12.486;2022-10-17T07:41:11;30.13;;;26.93;;
12840;SDS011;6487;48.626;12.486;2022-10-17T07:43:46;30.53;;;27.43;;
12840;SDS011;6487;48.626;12.486;2022-10-17T07:46:16;32.17;;;28.73;;
12840;SDS011;6487;48.626;12.486;2022-10-17T07:48:45;36.17;;;29.67;;
12840;SDS011;6487;48.626;12.486;2022-10-17T07:51:13;33.63;;;29.83;;
12840;SDS011;6487;48.626;12.486;2022-10-17T07:53:42;39.77;;;32.43;;
12840;SDS011;6487;48.626;12.486;2022-10-17T07:56:14;41.50;;;32.70;;
12840;SDS011;6487;48.626;12.486;2022-10-17T07:58:42;35.10;;;31.03;;
12840;SDS011;6487;48.626;12.486;2022-10-17T08:01:11;51.50;;;33.03;;
12840;SDS011;6487;48.626;12.486;2022-10-17T08:03:43;37.73;;;30.57;;
12840;SDS011;6487;48.626;12.486;2022-10-17T08:06:13;49.03;;;32.80;;
12840;SDS011;6487;48.626;12.486;2022-10-17T08:08:42;36.97;;;32.47;;
12840;SDS011;6487;48.626;12.486;2022-10-17T08:11:12;40.03;;;31.27;;
12840;SDS011;6487;48.626;12.486;2022-10-17T08:13:41;41.80;;;29.63;;
12840;SDS011;6487;48.626;12.486;2022-10-17T08:16:10;39.13;;;31.07;;
12840;SDS011;6487;48.626;12.486;2022-10-17T08:18:40;50.60;;;29.97;;
12840;SDS011;6487;48.626;12.486;2022-10-17T08:21:10;72.93;;;31.83;;
12840;SDS011;6487;48.626;12.486;2022-10-17T08:23:39;43.47;;;31.77;;
12840;SDS011;6487;48.626;12.486;2022-10-17T08:26:08;43.57;;;31.93;;
12840;SDS011;6487;48.626;12.486;2022-10-17T08:28:39;35.13;;;31.07;;
12840;SDS011;6487;48.626;12.486;2022-10-17T08:31:08;34.87;;;31.07;;
12840;SDS011;6487;48.626;12.486;2022-10-17T08:33:39;37.60;;;30.40;;
12840;SDS011;6487;48.626;12.486;2022-10-17T08:36:08;34.37;;;30.67;;
12840;SDS011;6487;48.626;12.486;2022-10-17T08:38:40;32.20;;;28.83;;
12840;SDS011;6487;48.626;12.486;2022-10-17T08:41:13;34.13;;;30.63;;
12840;SDS011;6487;48.626;12.486;2022-10-17T08:44:04;33.73;;;30.33;;
12840;SDS011;6487;48.626;12.486;2022-10-17T08:46:42;35.93;;;30.80;;
12840;SDS011;6487;48.626;12.486;2022-10-17T08:49:15;32.00;;;28.80;;
12840;SDS011;6487;48.626;12.486;2022-10-17T08:51:56;31.13;;;27.43;;
12840;SDS011;6487;48.626;12.486;2022-10-17T08:54:34;32.20;;;28.83;;
12840;SDS011;6487;48.626;12.486;2022-10-17T08:57:10;30.60;;;27.53;;
12840;SDS011;6487;48.626;12.486;2022-10-17T08:59:40;31.63;;;28.33;;
12840;SDS011;6487;48.626;12.486;2022-10-17T09:02:16;29.03;;;26.10;;
12840;SDS011;6487;48.626;12.486;2022-10-17T09:05:12;31.47;;;28.27;;
12840;SDS011;6487;48.626;12.486;2022-10-17T09:08:04;27.83;;;24.93;;
12840;SDS011;6487;48.626;12.486;2022-10-17T09:10:46;29.00;;;26.07;;
12840;SDS011;6487;48.626;12.486;2022-10-17T09:13:33;29.70;;;26.00;;
12840;SDS011;6487;48.626;12.486;2022-10-17T09:16:19;27.27;;;24.57;;
12840;SDS011;6487;48.626;12.486;2022-10-17T09:19:06;25.03;;;22.63;;
12840;SDS011;6487;48.626;12.486;2022-10-17T09:21:41;23.50;;;21.30;;
12840;SDS011;6487;48.626;12.486;2022-10-17T09:24:15;23.33;;;21.13;;
12840;SDS011;6487;48.626;12.486;2022-10-17T09:26:50;22.23;;;20.03;;
12840;SDS011;6487;48.626;12.486;2022-10-17T09:29:21;23.37;;;21.23;;
12840;SDS011;6487;48.626;12.486;2022-10-17T09:31:59;22.57;;;20.50;;
12840;SDS011;6487;48.626;12.486;2022-10-17T09:34:31;21.83;;;19.73;;
12840;SDS011;6487;48.626;12.486;2022-10-17T09:37:00;20.77;;;18.97;;
12840;SDS011;6487;48.626;12.486;2022-10-17T09:39:30;22.00;;;19.90;;
12840;SDS011;6487;48.626;12.486;2022-10-17T09:41:59;22.40;;;20.37;;
12840;SDS011;6487;48.626;12.486;2022-10-17T09:44:29;20.47;;;18.50;;
12840;SDS011;6487;48.626;12.486;2022-10-17T09:47:11;20.90;;;18.90;;
12840;SDS011;6487;48.626;12.486;2022-10-17T09:49:49;19.93;;;18.03;;
12840;SDS011;6487;48.626;12.486;2022-10-17T09:52:19;20.50;;;18.57;;
12840;SDS011;6487;48.626;12.486;2022-10-17T09:54:56;18.77;;;17.07;;
12840;SDS011;6487;48.626;12.486;2022-10-17T09:57:49;18.73;;;17.03;;
12840;SDS011;6487;48.626;12.486;2022-10-17T10:00:24;17.50;;;15.73;;
12840;SDS011;6487;48.626;12.486;2022-10-17T10:03:09;16.83;;;15.23;;
12840;SDS011;6487;48.626;12.486;2022-10-17T10:05:42;15.53;;;14.13;;
12840;SDS011;6487;48.626;12.486;2022-10-17T10:08:28;15.80;;;14.30;;
12840;SDS011;6487;48.626;12.486;2022-10-17T10:11:02;16.57;;;14.87;;
12840;SDS011;6487;48.626;12.486;2022-10-17T10:13:38;16.53;;;15.03;;
12840;SDS011;6487;48.626;12.486;2022-10-17T10:16:16;17.03;;;14.83;;
12840;SDS011;6487;48.626;12.486;2022-10-17T10:18:50;16.10;;;14.60;;
12840;SDS011;6487;48.626;12.486;2022-10-17T10:21:19;15.73;;;14.30;;
12840;SDS011;6487;48.626;12.486;2022-10-17T10:24:04;15.50;;;14.20;;
12840;SDS011;6487;48.626;12.486;2022-10-17T10:26:41;14.17;;;12.70;;
12840;SDS011;6487;48.626;12.486;2022-10-17T10:29:21;15.20;;;13.90;;
12840;SDS011;6487;48.626;12.486;2022-10-17T10:31:56;15.13;;;13.63;;
12840;SDS011;6487;48.626;12.486;2022-10-17T10:34:34;18.63;;;16.87;;
12840;SDS011;6487;48.626;12.486;2022-10-17T10:37:15;16.97;;;15.37;;
12840;SDS011;6487;48.626;12.486;2022-10-17T10:39:47;18.40;;;16.70;;
12840;SDS011;6487;48.626;12.486;2022-10-17T10:42:25;18.27;;;16.50;;
12840;SDS011;6487;48.626;12.486;2022-10-17T10:44:57;16.77;;;15.27;;
12840;SDS011;6487;48.626;12.486;2022-10-17T10:47:30;15.90;;;14.37;;
12840;SDS011;6487;48.626;12.486;2022-10-17T10:50:07;15.27;;;13.97;;
12840;SDS011;6487;48.626;12.486;2022-10-17T10:52:55;14.00;;;12.73;;
12840;SDS011;6487;48.626;12.486;2022-10-17T10:55:39;13.77;;;12.37;;
12840;SDS011;6487;48.626;12.486;2022-10-17T10:58:19;13.32;;;12.02;;
12840;SDS011;6487;48.626;12.486;2022-10-17T11:00:57;13.02;;;11.73;;
12840;SDS011;6487;48.626;12.486;2022-10-17T11:03:34;12.40;;;11.30;;
12840;SDS011;6487;48.626;12.486;2022-10-17T11:06:11;11.77;;;10.60;;
12840;SDS011;6487;48.626;12.486;2022-10-17T11:08:44;11.25;;;10.25;;
12840;SDS011;6487;48.626;12.486;2022-10-17T11:11:18;12.65;;;11.27;;
12840;SDS011;6487;48.626;12.486;2022-10-17T11:13:59;10.60;;;9.75;;
12840;SDS011;6487;48.626;12.486;2022-10-17T11:16:39;10.80;;;9.90;;
12840;SDS011;6487;48.626;12.486;2022-10-17T11:19:15;9.85;;;9.05;;
12840;SDS011;6487;48.626;12.486;2022-10-17T11:21:56;10.57;;;9.45;;
12840;SDS011;6487;48.626;12.486;2022-10-17T11:24:35;9.68;;;8.80;;
12840;SDS011;6487;48.626;12.486;2022-10-17T11:27:09;9.70;;;8.90;;
12840;SDS011;6487;48.626;12.486;2022-10-17T11:29:41;9.55;;;8.65;;
12840;SDS011;6487;48.626;12.486;2022-10-17T11:32:13;10.68;;;7.30;;
12840;SDS011;6487;48.626;12.486;2022-10-17T11:34:49;9.07;;;8.18;;
12840;SDS011;6487;48.626;12.486;2022-10-17T11:37:22;9.38;;;8.57;;
12840;SDS011;6487;48.626;12.486;2022-10-17T11:39:53;8.57;;;7.80;;
12840;SDS011;6487;48.626;12.486;2022-10-17T11:42:29;8.57;;;7.75;;
12840;SDS011;6487;48.626;12.486;2022-10-17T11:45:07;8.43;;;7.55;;
12840;SDS011;6487;48.626;12.486;2022-10-17T11:47:42;9.48;;;8.55;;
12840;SDS011;6487;48.626;12.486;2022-10-17T11:50:19;9.20;;;7.90;;
12840;SDS011;6487;48.626;12.486;2022-10-17T11:53:13;8.80;;;6.67;;
12840;SDS011;6487;48.626;12.486;2022-10-17T11:55:44;10.77;;;7.65;;
12840;SDS011;6487;48.626;12.486;2022-10-17T11:58:16;7.38;;;6.70;;
12840;SDS011;6487;48.626;12.486;2022-10-17T12:01:06;6.85;;;6.25;;
12840;SDS011;6487;48.626;12.486;2022-10-17T12:03:45;9.00;;;7.67;;
12840;SDS011;6487;48.626;12.486;2022-10-17T12:06:30;9.75;;;6.97;;
12840;SDS011;6487;48.626;12.486;2022-10-17T12:09:10;7.53;;;6.47;;
12840;SDS011;6487;48.626;12.486;2022-10-17T12:11:49;7.73;;;7.03;;
12840;SDS011;6487;48.626;12.486;2022-10-17T12:14:40;5.95;;;5.45;;
12840;SDS011;6487;48.626;12.486;2022-10-17T12:23:18;6.13;;;5.43;;
12840;SDS011;6487;48.626;12.486;2022-10-17T12:25:53;6.35;;;5.85;;
12840;SDS011;6487;48.626;12.486;2022-10-17T12:28:28;5.88;;;5.38;;
12840;SDS011;6487;48.626;12.486;2022-10-17T12:30:59;6.53;;;5.93;;
12840;SDS011;6487;48.626;12.486;2022-10-17T12:33:33;6.38;;;5.85;;
12840;SDS011;6487;48.626;12.486;2022-10-17T12:42:43;8.35;;;4.78;;
12840;SDS011;6487;48.626;12.486;2022-10-17T12:57:41;4.78;;;4.20;;
12840;SDS011;6487;48.626;12.486;2022-10-17T13:00:19;5.57;;;4.38;;
12840;SDS011;6487;48.626;12.486;2022-10-17T13:02:53;5.78;;;5.35;;
12840;SDS011;6487;48.626;12.486;2022-10-17T13:05:30;6.78;;;5.10;;
12840;SDS011;6487;48.626;12.486;2022-10-17T13:08:04;6.50;;;5.57;;
12840;SDS011;6487;48.626;12.486;2022-10-17T13:10:37;5.65;;;5.25;;
12840;SDS011;6487;48.626;12.486;2022-10-17T13:13:10;5.95;;;5.10;;
12840;SDS011;6487;48.626;12.486;2022-10-17T13:15:46;5.38;;;4.90;;
12840;SDS011;6487;48.626;12.486;2022-10-17T13:18:17;6.35;;;5.75;;
12840;SDS011;6487;48.626;12.486;2022-10-17T13:20:55;8.95;;;5.10;;
12840;SDS011;6487;48.626;12.486;2022-10-17T13:23:29;5.65;;;5.25;;
12840;SDS011;6487;48.626;12.486;2022-10-17T13:26:04;7.35;;;5.65;;
12840;SDS011;6487;48.626;12.486;2022-10-17T13:28:39;6.50;;;5.90;;
12840;SDS011;6487;48.626;12.486;2022-10-17T13:31:19;6.15;;;5.55;;
12840;SDS011;6487;48.626;12.486;2022-10-17T13:33:58;5.68;;;5.13;;
12840;SDS011;6487;48.626;12.486;2022-10-17T13:36:29;6.15;;;5.63;;
12840;SDS011;6487;48.626;12.486;2022-10-17T13:39:04;5.47;;;4.95;;
12840;SDS011;6487;48.626;12.486;2022-10-17T13:41:39;8.23;;;5.40;;
12840;SDS011;6487;48.626;12.486;2022-10-17T13:44:10;9.70;;;5.57;;
12840;SDS011;6487;48.626;12.486;2022-10-17T13:46:42;6.70;;;4.77;;
12840;SDS011;6487;48.626;12.486;2022-10-17T13:49:14;6.50;;;5.90;;
12840;SDS011;6487;48.626;12.486;2022-10-17T13:51:51;5.73;;;5.23;;
12840;SDS011;6487;48.626;12.486;2022-10-17T13:54:30;5.30;;;4.90;;
12840;SDS011;6487;48.626;12.486;2022-10-17T13:57:02;5.20;;;4.80;;
12840;SDS011;6487;48.626;12.486;2022-10-17T13:59:35;6.07;;;4.90;;
12840;SDS011;6487;48.626;12.486;2022-10-17T14:02:08;5.33;;;4.90;;
12840;SDS011;6487;48.626;12.486;2022-10-17T14:04:42;7.27;;;4.77;;
12840;SDS011;6487;48.626;12.486;2022-10-17T14:07:32;4.40;;;4.00;;
12840;SDS011;6487;48.626;12.486;2022-10-17T14:10:28;4.40;;;3.77;;
12840;SDS011;6487;48.626;12.486;2022-10-17T14:12:59;3.43;;;3.10;;
12840;SDS011;6487;48.626;12.486;2022-10-17T14:15:31;5.50;;;3.40;;
12840;SDS011;6487;48.626;12.486;2022-10-17T14:18:02;3.87;;;3.50;;
12840;SDS011;6487;48.626;12.486;2022-10-17T14:20:34;5.03;;;3.20;;
12840;SDS011;6487;48.626;12.486;2022-10-17T14:23:30;3.30;;;3.10;;
12840;SDS011;6487;48.626;12.486;2022-10-17T14:26:11;3.50;;;3.20;;
12840;SDS011;6487;48.626;12.486;2022-10-17T14:28:43;5.27;;;3.27;;
12840;SDS011;6487;48.626;12.486;2022-10-17T14:31:22;5.10;;;3.30;;
12840;SDS011;6487;48.626;12.486;2022-10-17T14:33:56;3.73;;;3.43;;
12840;SDS011;6487;48.626;12.486;2022-10-17T14:36:30;3.43;;;3.17;;
12840;SDS011;6487;48.626;12.486;2022-10-17T14:39:07;3.33;;;3.10;;
12840;SDS011;6487;48.626;12.486;2022-10-17T14:41:48;4.50;;;3.57;;
12840;SDS011;6487;48.626;12.486;2022-10-17T14:44:18;2.93;;;2.73;;
12840;SDS011;6487;48.626;12.486;2022-10-17T14:46:52;3.60;;;3.30;;
12840;SDS011;6487;48.626;12.486;2022-10-17T14:49:35;3.47;;;3.17;;
12840;SDS011;6487;48.626;12.486;2022-10-17T14:52:22;3.87;;;3.57;;
12840;SDS011;6487;48.626;12.486;2022-10-17T14:54:55;5.97;;;3.00;;
12840;SDS011;6487;48.626;12.486;2022-10-17T14:57:27;3.87;;;3.30;;
12840;SDS011;6487;48.626;12.486;2022-10-17T15:00:11;3.47;;;3.20;;
12840;SDS011;6487;48.626;12.486;2022-10-17T15:02:41;4.87;;;3.57;;
12840;SDS011;6487;48.626;12.486;2022-10-17T15:05:10;3.90;;;3.60;;
12840;SDS011;6487;48.626;12.486;2022-10-17T15:07:39;4.27;;;3.37;;
12840;SDS011;6487;48.626;12.486;2022-10-17T15:10:15;5.63;;;5.10;;
12840;SDS011;6487;48.626;12.486;2022-10-17T15:12:56;6.23;;;4.00;;
12840;SDS011;6487;48.626;12.486;2022-10-17T15:15:46;4.27;;;3.90;;
12840;SDS011;6487;48.626;12.486;2022-10-17T15:18:17;4.47;;;3.80;;
12840;SDS011;6487;48.626;12.486;2022-10-17T15:20:46;6.73;;;3.50;;
12840;SDS011;6487;48.626;12.486;2022-10-17T15:23:29;4.10;;;3.73;;
12840;SDS011;6487;48.626;12.486;2022-10-17T15:25:58;4.07;;;3.77;;
12840;SDS011;6487;48.626;12.486;2022-10-17T15:28:29;3.23;;;3.03;;
12840;SDS011;6487;48.626;12.486;2022-10-17T15:30:57;7.23;;;3.63;;
12840;SDS011;6487;48.626;12.486;2022-10-17T15:33:25;4.27;;;3.30;;
12840;SDS011;6487;48.626;12.486;2022-10-17T15:35:54;4.37;;;3.43;;
12840;SDS011;6487;48.626;12.486;2022-10-17T15:38:23;4.80;;;3.63;;